This is the latest recevied weather packets stored in our database for station/object N7AWM. If no packets are shown the sender has not sent any weather packets the latest 10 day(s).
| Time | Temp. | Humidity | Pressure | Rain* | Wind** | Luminosity | Snow |
|---|---|---|---|---|---|---|---|
| 1777906565 | 17.78° C | 47% | 1005.5 hPa | 0 mm | - | - | - |
| 1777905725 | 16.67° C | 50% | 1005.5 hPa | 0 mm | - | - | - |
| 1777904886 | 16.11° C | 52% | 1005.4 hPa | 0 mm | - | - | - |
| 1777904046 | 15° C | 57% | 1005.4 hPa | 0 mm | - | - | - |
| 1777903206 | 14.44° C | 57% | 1005.2 hPa | 0 mm | - | - | - |
| 1777902366 | 13.89° C | 57% | 1005 hPa | 0 mm | - | - | - |
| 1777901526 | 13.33° C | 58% | 1004.8 hPa | 0 mm | - | - | - |
| 1777900686 | 13.33° C | 56% | 1004.6 hPa | 0 mm | - | - | - |
| 1777899846 | 15° C | 46% | 1004.4 hPa | 0 mm | - | - | - |
| 1777899006 | 17.22° C | 37% | 1004.4 hPa | 0 mm | - | - | - |
| 1777898166 | 17.22° C | 37% | 1004.5 hPa | 0 mm | - | - | - |
| 1777897326 | 16.11° C | 42% | 1004.6 hPa | 0 mm | - | - | - |
| 1777896486 | 16.11° C | 44% | 1004.6 hPa | 0 mm | - | - | - |
| 1777895646 | 13.89° C | 58% | 1004.8 hPa | 0 mm | - | - | - |
| 1777894806 | 12.78° C | 62% | 1004.8 hPa | 0 mm | - | - | - |
| 1777893966 | 13.33° C | 61% | 1005 hPa | 0 mm | - | - | - |
| 1777893126 | 13.33° C | 61% | 1005 hPa | 0 mm | - | - | - |
| 1777892286 | 13.33° C | 62% | 1004.9 hPa | 0 mm | - | - | - |
| 1777891447 | 13.89° C | 58% | 1005 hPa | 0 mm | - | - | - |
| 1777890607 | 15° C | 55% | 1004.9 hPa | 0 mm | - | - | - |
| 1777889767 | 15.56° C | 53% | 1004.8 hPa | 0 mm | - | - | - |
| 1777888927 | 15° C | 54% | 1004.7 hPa | 0 mm | - | - | - |
| 1777888087 | 15.56° C | 52% | 1004.6 hPa | 0 mm | - | - | - |
| 1777887247 | 16.67° C | 49% | 1004.6 hPa | 0 mm | - | - | - |
| 1777886407 | 16.11° C | 49% | 1004.6 hPa | 0 mm | - | - | - |
* Rain latest hour (hover to see other rain measurements)
** Current wind speed in m/s (hover to see current wind gust speed)